MMAA/ACA METAR and TAF weather

Enter ICAO airport designator
Station Type Date Time Source
MMAA METAR 2021/02/27 20:48 UTC NOAA

MMAA 272048Z 23006KT 6SM FEW300 29/23 A2979 RMK SLP084 57029 916 8/001 HZY TCU NW CU E


Station Type Date Time Source
MMAA Decoded METAR 2021/02/27 20:48 UTC NOAA

Acapulco / G. Alvarez, Mexico (MMAA) 16-46N 099-45W
Feb 27, 2021 - 03:48 PM EST / 2021.02.27 2048 UTC
Wind: from the SW (230 degrees) at 7 MPH (6 KT):0
Visibility: 6 mile(s):0
Sky conditions: mostly clear
Weather: Towering cumulus clouds observed
Temperature: 84 F (29 C)
Dew Point: 73 F (23 C)
Relative Humidity: 70%
Pressure (altimeter): 29.79 in. Hg (1008 hPa)
Pressure tendency: 0.09 inches (2.9 hPa) lower than three hours ago
ob: MMAA 272048Z 23006KT 6SM FEW300 29/23 A2979 RMK SLP084 57029 916 8/001 HZY TCU NW CU E
cycle: 21

Station Type Date Time Source
MMAA TAF 2021/02/27 18:12 UTC NOAA

TAF MMAA 271705Z 2718/2824 23005KT 5SM HZ SCT300 TX30/2722Z TN24/2813Z
BECMG 2720/2721 25012KT
FM280200 29005KT 6SM HZ SKC
BECMG 2805/2806 00000KT
FM281200 02005KT 5SM HZ SKC
BECMG 2817/2818 23005KT
FM282100 23012KT 6SM HZ SCT300

Example: see airport list